createdAt,value
2018-08-22T00:00:43.885Z,99.90
2018-08-22T00:05:46.416Z,99.90
2018-08-22T00:10:48.983Z,99.90
2018-08-22T00:15:51.491Z,99.90
2018-08-22T00:20:54.131Z,99.90
2018-08-22T00:25:56.637Z,99.90
2018-08-22T00:30:59.161Z,99.90
2018-08-22T00:36:01.688Z,99.90
2018-08-22T00:41:04.210Z,99.90
2018-08-22T00:46:06.737Z,99.90
2018-08-22T00:51:09.258Z,99.90
2018-08-22T00:56:11.799Z,99.90
2018-08-22T01:01:14.324Z,99.90
2018-08-22T01:06:16.838Z,99.90
2018-08-22T01:11:19.402Z,99.90
2018-08-22T01:16:21.906Z,99.90
2018-08-22T01:21:24.434Z,99.90
2018-08-22T01:26:26.990Z,99.90
2018-08-22T01:31:29.526Z,99.90
2018-08-22T01:36:32.055Z,99.90
2018-08-22T01:41:34.622Z,99.90
2018-08-22T01:46:37.147Z,99.90
2018-08-22T01:51:39.690Z,99.90
2018-08-22T01:56:42.234Z,99.90
2018-08-22T02:01:44.778Z,99.90
2018-08-22T02:06:47.325Z,99.90
2018-08-22T02:11:49.814Z,99.90
2018-08-22T02:16:52.334Z,99.90
2018-08-22T02:21:54.858Z,99.90
2018-08-22T02:26:58.059Z,99.90
2018-08-22T02:32:00.647Z,99.90
2018-08-22T02:37:03.167Z,99.90
2018-08-22T02:42:05.683Z,99.90
2018-08-22T02:47:08.219Z,99.90
2018-08-22T02:52:10.756Z,99.90
2018-08-22T02:57:13.349Z,99.90
2018-08-22T03:02:15.871Z,99.90
2018-08-22T03:07:18.384Z,99.90
2018-08-22T03:12:20.923Z,99.90
2018-08-22T03:17:23.479Z,99.90
2018-08-22T03:22:26.008Z,99.90
2018-08-22T03:27:28.534Z,99.90
2018-08-22T03:32:31.065Z,99.90
2018-08-22T03:37:33.687Z,99.90
2018-08-22T03:42:36.310Z,99.90
2018-08-22T03:47:38.826Z,99.90
2018-08-22T03:52:41.344Z,99.90
2018-08-22T03:57:43.879Z,99.90
2018-08-22T04:02:46.448Z,99.90
2018-08-22T04:07:48.976Z,99.90
2018-08-22T04:12:51.615Z,99.90
2018-08-22T04:17:54.155Z,99.90
2018-08-22T04:22:56.682Z,99.90
2018-08-22T04:27:59.215Z,99.90
2018-08-22T04:33:01.752Z,99.90
2018-08-22T04:38:04.371Z,99.90
2018-08-22T04:43:06.879Z,99.90
2018-08-22T04:48:09.419Z,99.90
2018-08-22T04:53:11.922Z,99.90
2018-08-22T04:58:14.422Z,99.90
2018-08-22T05:03:16.959Z,99.90
2018-08-22T05:08:19.482Z,99.90
2018-08-22T05:13:22.002Z,99.90
2018-08-22T05:18:24.558Z,99.90
2018-08-22T05:23:27.119Z,99.90
2018-08-22T05:28:29.659Z,99.90
2018-08-22T05:33:32.166Z,99.90
2018-08-22T05:38:34.702Z,99.90
2018-08-22T05:43:37.245Z,99.90
2018-08-22T05:48:39.813Z,99.90
2018-08-22T05:53:42.338Z,99.90
2018-08-22T05:58:44.896Z,99.90
2018-08-22T06:03:47.428Z,99.90
2018-08-22T06:08:49.955Z,99.90
2018-08-22T06:13:52.546Z,99.90
2018-08-22T06:18:55.125Z,99.90
2018-08-22T06:23:57.834Z,99.90
2018-08-22T06:29:00.374Z,99.90
2018-08-22T06:34:02.946Z,99.90
2018-08-22T06:39:07.756Z,99.90
2018-08-22T06:44:10.341Z,99.90
2018-08-22T06:49:12.820Z,99.90
2018-08-22T06:54:15.428Z,99.90
2018-08-22T06:59:17.952Z,99.90
2018-08-22T07:04:20.727Z,99.90
2018-08-22T07:09:23.824Z,99.90
2018-08-22T07:14:26.349Z,99.90
2018-08-22T07:19:28.902Z,99.10
2018-08-22T07:24:31.454Z,97.50
2018-08-22T07:29:33.977Z,96.50
2018-08-22T07:34:36.513Z,95.40
2018-08-22T07:39:39.112Z,94.30
2018-08-22T07:44:41.644Z,93.60
2018-08-22T07:49:44.218Z,92.50
2018-08-22T07:54:47.191Z,91.90
2018-08-22T07:59:50.431Z,91.00
2018-08-22T08:04:52.974Z,88.10
2018-08-22T08:09:55.484Z,84.20
2018-08-22T08:15:04.287Z,81.80
2018-08-22T08:20:06.813Z,78.90
2018-08-22T08:25:09.324Z,76.70
2018-08-22T08:30:11.828Z,75.70
2018-08-22T08:35:14.612Z,71.30
2018-08-22T08:40:18.020Z,67.90
2018-08-22T08:45:20.602Z,65.20
2018-08-22T08:50:23.172Z,65.40
2018-08-22T08:55:25.723Z,61.20
2018-08-22T09:00:28.234Z,58.90
2018-08-22T09:05:30.775Z,53.80
2018-08-22T09:10:33.338Z,53.70
2018-08-22T09:15:36.287Z,52.30
2018-08-22T09:20:39.355Z,50.60
2018-08-22T09:25:41.956Z,51.10
2018-08-22T09:30:44.511Z,50.40
2018-08-22T09:35:47.076Z,50.40
2018-08-22T09:40:49.652Z,48.50
2018-08-22T09:45:52.312Z,47.80
2018-08-22T09:50:55.512Z,45.40
2018-08-22T09:56:02.815Z,44.40
2018-08-22T10:01:13.737Z,44.50
2018-08-22T10:06:28.359Z,42.60
2018-08-22T10:11:37.835Z,42.10
2018-08-22T10:16:40.388Z,41.80
2018-08-22T10:21:42.964Z,41.30
2018-08-22T10:26:45.497Z,38.80
2018-08-22T10:31:48.393Z,39.60
2018-08-22T10:36:50.961Z,38.50
2018-08-22T10:41:53.575Z,36.40
2018-08-22T10:46:56.164Z,35.30
2018-08-22T10:51:58.695Z,34.10
2018-08-22T10:57:01.638Z,34.40
2018-08-22T11:02:04.448Z,33.20
2018-08-22T11:07:06.927Z,33.40
2018-08-22T11:12:10.104Z,32.60
2018-08-22T11:17:12.683Z,30.80
2018-08-22T11:22:26.591Z,29.50
2018-08-22T11:27:40.559Z,28.80
2018-08-22T11:32:54.476Z,27.90
2018-08-22T11:37:57.016Z,28.10
2018-08-22T11:42:59.590Z,27.50
2018-08-22T11:48:02.108Z,27.30
2018-08-22T11:53:05.102Z,27.70
2018-08-22T11:58:07.644Z,26.70
2018-08-22T12:03:10.306Z,25.60
2018-08-22T12:08:12.897Z,25.30
2018-08-22T12:13:15.524Z,25.60
2018-08-22T12:18:18.107Z,25.80
2018-08-22T12:23:20.764Z,24.50
2018-08-22T12:28:23.267Z,24.00
2018-08-22T12:33:25.925Z,24.80
2018-08-22T12:38:28.648Z,23.40
2018-08-22T12:43:31.251Z,23.10
2018-08-22T12:48:33.858Z,23.90
2018-08-22T12:53:36.441Z,23.30
2018-08-22T12:58:38.978Z,23.10
2018-08-22T13:03:41.529Z,22.80
2018-08-22T13:08:44.223Z,22.70
2018-08-22T13:13:46.789Z,22.00
2018-08-22T13:18:49.414Z,21.10
2018-08-22T13:23:51.934Z,22.20
2018-08-22T13:28:54.534Z,20.00
2018-08-22T13:33:57.304Z,19.70
2018-08-22T13:39:00.031Z,21.50
2018-08-22T13:44:02.598Z,20.30
2018-08-22T13:49:05.184Z,19.40
2018-08-22T13:54:07.808Z,20.50
2018-08-22T13:59:10.340Z,19.60
2018-08-22T14:04:12.908Z,19.20
2018-08-22T14:09:15.549Z,18.10
2018-08-22T14:14:18.250Z,18.70
2018-08-22T14:19:20.837Z,18.70
2018-08-22T14:24:23.382Z,19.10
2018-08-22T14:29:25.918Z,18.90
2018-08-22T14:34:28.475Z,19.00
2018-08-22T14:39:31.020Z,18.00
2018-08-22T14:44:33.691Z,17.90
2018-08-22T14:49:36.248Z,18.10
2018-08-22T14:54:38.898Z,17.40
2018-08-22T14:59:41.518Z,18.90
2018-08-22T15:04:44.100Z,19.00
2018-08-22T15:09:47.088Z,21.30
2018-08-22T15:14:49.651Z,24.90
2018-08-22T15:19:52.192Z,27.90
2018-08-22T15:24:54.971Z,30.00
2018-08-22T15:29:57.631Z,31.90
2018-08-22T15:35:00.125Z,33.40
2018-08-22T15:40:03.118Z,36.10
2018-08-22T15:45:06.406Z,38.30
2018-08-22T15:50:09.048Z,39.30
2018-08-22T15:55:14.467Z,42.40
2018-08-22T16:00:35.266Z,44.60
2018-08-22T16:05:38.995Z,46.60
2018-08-22T16:10:41.893Z,47.90
2018-08-22T16:15:45.523Z,48.60
2018-08-22T16:20:59.567Z,48.60
2018-08-22T16:26:03.284Z,48.90
2018-08-22T16:31:05.864Z,49.60
2018-08-22T16:36:13.933Z,48.20
2018-08-22T16:41:16.825Z,42.10
2018-08-22T16:46:19.367Z,37.00
2018-08-22T16:51:22.395Z,34.50
2018-08-22T16:56:24.990Z,35.10
2018-08-22T17:01:27.647Z,37.10
2018-08-22T17:06:30.204Z,39.30
2018-08-22T17:11:32.763Z,39.60
2018-08-22T17:16:35.334Z,42.60
2018-08-22T17:21:37.875Z,44.20
2018-08-22T17:26:40.512Z,43.50
2018-08-22T17:31:44.354Z,42.70
2018-08-22T17:36:57.110Z,42.00
2018-08-22T17:41:59.667Z,43.20
2018-08-22T17:47:02.285Z,45.10
2018-08-22T17:52:07.108Z,50.00
2018-08-22T17:57:23.901Z,52.90
2018-08-22T18:02:26.449Z,54.60
2018-08-22T18:07:29.044Z,56.10
2018-08-22T18:12:31.602Z,58.40
2018-08-22T18:17:34.209Z,58.60
2018-08-22T18:22:37.919Z,61.60
2018-08-22T18:27:40.548Z,62.80
2018-08-22T18:32:44.416Z,65.60
2018-08-22T18:37:47.000Z,69.50
2018-08-22T18:42:54.618Z,74.80
2018-08-22T18:47:57.719Z,78.10
2018-08-22T18:53:01.559Z,82.10
2018-08-22T18:58:04.972Z,85.00
2018-08-22T19:03:07.579Z,86.10
2018-08-22T19:08:13.612Z,88.30
2018-08-22T19:13:17.466Z,90.30
2018-08-22T19:18:20.112Z,91.30
2018-08-22T19:23:22.872Z,91.50
2018-08-22T19:28:25.426Z,91.20
2018-08-22T19:33:28.108Z,92.30
2018-08-22T19:38:30.657Z,92.90
2018-08-22T19:43:33.297Z,93.20
2018-08-22T19:48:35.820Z,93.30
2018-08-22T19:53:48.459Z,94.00
2018-08-22T19:58:51.006Z,94.40
2018-08-22T20:03:55.395Z,94.40
2018-08-22T20:08:58.999Z,94.50
2018-08-22T20:14:02.918Z,94.60
2018-08-22T20:19:05.495Z,95.30
2018-08-22T20:24:10.600Z,95.60
2018-08-22T20:29:13.035Z,95.90
2018-08-22T20:34:15.869Z,95.80
2018-08-22T20:39:18.443Z,96.50
2018-08-22T20:44:21.478Z,96.90
2018-08-22T20:49:24.057Z,97.60
2018-08-22T20:54:27.277Z,97.70
2018-08-22T20:59:29.844Z,97.80
2018-08-22T21:04:33.160Z,98.50
2018-08-22T21:09:35.702Z,98.60
2018-08-22T21:14:38.271Z,97.80
2018-08-22T21:19:40.822Z,97.90
2018-08-22T21:24:43.455Z,98.10
2018-08-22T21:29:45.875Z,98.60
2018-08-22T21:34:48.429Z,98.70
2018-08-22T21:39:50.987Z,98.80
2018-08-22T21:44:53.560Z,99.00
2018-08-22T21:49:56.133Z,99.10
2018-08-22T21:54:58.707Z,99.90
2018-08-22T22:00:08.363Z,99.40
2018-08-22T22:05:11.861Z,99.90
2018-08-22T22:10:14.305Z,99.90
2018-08-22T22:15:22.410Z,99.90
2018-08-22T22:20:25.031Z,99.90
2018-08-22T22:25:27.423Z,99.90
2018-08-22T22:30:29.937Z,99.90
2018-08-22T22:35:37.287Z,99.90
2018-08-22T22:40:40.060Z,99.90
2018-08-22T22:45:42.591Z,99.90
2018-08-22T22:50:45.148Z,99.90
2018-08-22T22:55:47.713Z,99.90
2018-08-22T23:00:50.252Z,99.90
2018-08-22T23:05:52.800Z,99.90
2018-08-22T23:10:55.398Z,99.90
2018-08-22T23:15:57.959Z,99.90
2018-08-22T23:21:00.462Z,99.90
2018-08-22T23:26:11.402Z,99.90
2018-08-22T23:31:17.378Z,99.90
2018-08-22T23:36:19.920Z,99.90
2018-08-22T23:41:22.434Z,99.90
2018-08-22T23:46:24.984Z,99.90
2018-08-22T23:51:27.528Z,99.90
2018-08-22T23:56:30.970Z,99.90
